Time;durP1;ratioP1;P1;durP2;ratioP2;P2;SDS_P1;SDS_P2;PMS_P1;PMS_P2;Temp;Humidity;BMP_temperature;BMP_pressure;BME280_temperature;BME280_humidity;BME280_pressure;Samples;Min_cycle;Max_cycle;Signal;HPM_P1;HPM_P2
2022/07/15 00:04:10;;;;;;;5.45;3.58;;;;;;;16.56;86.03;100182.03;2667892;89;20952;-72
2022/07/15 00:08:11;;;;;;;5.80;2.43;;;;;;;16.40;85.29;100187.72;2665001;89;21042;-69
2022/07/15 00:17:20;;;;;;;12.73;2.30;;;;;;;15.92;84.69;100183.95;2713449;87;21055;-69
2022/07/15 00:22:27;;;;;;;3.30;2.72;;;;;;;15.80;84.07;100186.05;2694608;85;21039;-69
2022/07/15 00:26:29;;;;;;;2.60;2.10;;;;;;;15.80;84.66;100185.55;2640043;89;21013;-70
2022/07/15 00:30:34;;;;;;;3.85;1.98;;;;;;;15.82;84.91;100195.62;2662597;89;21258;-68
2022/07/15 00:34:37;;;;;;;6.12;2.00;;;;;;;15.81;84.50;100199.30;2632211;90;21044;-69
2022/07/15 00:38:38;;;;;;;2.85;2.00;;;;;;;15.73;83.99;100201.97;2675932;86;21066;-69
2022/07/15 00:42:45;;;;;;;2.95;1.80;;;;;;;15.66;83.20;100202.25;2724616;84;21053;-69
2022/07/15 00:46:47;;;;;;;5.40;2.72;;;;;;;15.49;83.05;100212.90;2724700;87;20975;-69
2022/07/15 00:51:27;;;;;;;4.17;1.80;;;;;;;15.46;82.87;100215.08;2724942;87;21034;-68
2022/07/15 00:55:31;;;;;;;3.65;1.55;;;;;;;15.39;82.04;100212.19;2724947;86;20979;-70
2022/07/15 00:59:35;;;;;;;3.85;1.50;;;;;;;15.06;81.70;100217.34;2695016;87;20975;-71
2022/07/15 01:03:40;;;;;;;3.75;1.62;;;;;;;14.87;82.51;100214.37;2701569;87;20972;-70
2022/07/15 01:07:41;;;;;;;2.13;1.17;;;;;;;14.66;82.43;100216.34;2704886;87;21038;-68
2022/07/15 01:12:02;;;;;;;2.42;1.85;;;;;;;14.46;82.79;100221.51;2710194;86;20999;-68
2022/07/15 01:16:04;;;;;;;4.28;1.52;;;;;;;14.33;82.82;100224.05;2710931;87;20975;-68
2022/07/15 01:20:07;;;;;;;4.12;1.55;;;;;;;14.23;82.63;100221.45;2724962;86;20994;-67
2022/07/15 01:24:10;;;;;;;2.27;1.12;;;;;;;14.17;82.94;100227.41;2724812;87;20987;-69
2022/07/15 01:28:41;;;;;;;2.77;0.95;;;;;;;14.02;83.13;100229.77;2723262;87;21010;-68
2022/07/15 01:32:42;;;;;;;3.12;0.75;;;;;;;13.82;82.69;100235.22;2681188;87;21059;-68
2022/07/15 01:36:53;;;;;;;3.50;0.82;;;;;;;13.78;82.42;100241.86;2710551;86;21022;-68
2022/07/15 01:40:55;;;;;;;1.07;0.98;;;;;;;13.75;82.16;100246.64;2730088;86;21018;-71
2022/07/15 01:45:07;;;;;;;3.70;0.88;;;;;;;13.70;82.20;100247.94;2707292;87;20999;-69
2022/07/15 01:49:29;;;;;;;4.08;1.07;;;;;;;13.75;81.09;100256.00;2731091;86;21093;-69
2022/07/15 01:53:30;;;;;;;3.85;0.85;;;;;;;13.80;79.85;100252.38;2713598;87;21043;-69
2022/07/15 01:57:40;;;;;;;1.40;0.70;;;;;;;13.93;79.26;100253.38;2724457;87;20994;-72
2022/07/15 02:01:42;;;;;;;1.37;1.05;;;;;;;13.93;79.46;100255.56;2623369;87;21100;-68
2022/07/15 02:05:44;;;;;;;3.15;1.37;;;;;;;13.92;79.88;100253.03;2724596;86;21027;-67
2022/07/15 02:09:51;;;;;;;2.30;1.55;;;;;;;13.80;79.71;100261.73;2630318;89;21037;-67
2022/07/15 02:13:59;;;;;;;3.52;1.32;;;;;;;13.75;79.68;100266.19;2694979;87;21046;-70
2022/07/15 02:18:08;;;;;;;2.47;0.85;;;;;;;13.70;80.34;100268.47;2721984;87;21043;-69
2022/07/15 02:22:09;;;;;;;2.45;1.30;;;;;;;13.68;80.43;100269.97;2722262;87;21015;-73
2022/07/15 02:26:10;;;;;;;1.80;1.10;;;;;;;13.62;80.42;100267.03;2679142;87;21076;-68
2022/07/15 02:30:12;;;;;;;1.42;1.20;;;;;;;13.72;80.58;100265.14;2672159;86;21030;-70
2022/07/15 02:34:25;;;;;;;3.47;1.30;;;;;;;13.65;80.71;100278.77;2737113;85;20951;-68
2022/07/15 02:38:26;;;;;;;2.65;1.95;;;;;;;13.66;80.86;100276.44;2692160;87;21014;-70
2022/07/15 02:42:28;;;;;;;15.08;1.22;;;;;;;13.75;80.26;100279.55;2698472;87;21018;-69
2022/07/15 02:46:29;;;;;;;3.83;1.85;;;;;;;13.88;79.73;100286.41;2723590;86;21036;-66
2022/07/15 02:50:31;;;;;;;2.27;1.35;;;;;;;13.94;79.11;100285.80;2727432;86;20989;-69
2022/07/15 02:54:35;;;;;;;5.25;1.42;;;;;;;13.92;78.86;100286.45;2743888;86;21024;-70
2022/07/15 02:58:36;;;;;;;1.50;1.05;;;;;;;13.71;79.41;100290.20;2723771;87;21052;-68
2022/07/15 03:02:38;;;;;;;2.80;1.42;;;;;;;13.60;79.94;100297.90;2723897;87;21363;-69
2022/07/15 03:07:01;;;;;;;7.62;1.42;;;;;;;13.58;80.37;100300.39;2723324;87;21074;-68
2022/07/15 03:11:02;;;;;;;3.60;1.60;;;;;;;13.39;81.03;100306.09;2718201;87;21045;-64
2022/07/15 03:15:05;;;;;;;4.58;1.10;;;;;;;13.48;80.52;100310.59;2698424;87;21037;-74
2022/07/15 03:19:08;;;;;;;8.43;2.02;;;;;;;13.56;80.34;100316.08;2732247;85;21031;-68
2022/07/15 03:23:09;;;;;;;3.30;1.62;;;;;;;13.69;79.88;100318.91;2682522;87;20991;-68
2022/07/15 03:27:30;;;;;;;2.22;1.90;;;;;;;13.81;79.13;100328.45;2722397;86;21046;-75
2022/07/15 03:31:31;;;;;;;1.90;1.30;;;;;;;13.90;78.71;100329.88;2718269;87;20992;-69
2022/07/15 03:35:33;;;;;;;4.37;1.52;;;;;;;14.01;78.51;100328.37;2721325;87;21512;-74
2022/07/15 03:39:34;;;;;;;1.98;0.95;;;;;;;14.10;77.84;100336.83;2724094;86;20987;-66
2022/07/15 03:43:35;;;;;;;4.10;1.92;;;;;;;14.15;77.32;100343.08;2766575;80;70536;-93
2022/07/15 03:47:38;;;;;;;2.70;1.50;;;;;;;14.21;78.09;100341.66;2809874;84;20996;-90
2022/07/15 04:04:05;;;;;;;6.30;2.80;;;;;;;14.48;78.55;100366.72;2748463;82;21062;-66
2022/07/15 04:08:07;;;;;;;6.45;2.08;;;;;;;14.59;78.47;100375.03;2750167;85;21023;-72
2022/07/15 04:12:10;;;;;;;22.62;2.17;;;;;;;14.66;78.01;100367.59;2747076;85;21047;-70
2022/07/15 04:16:11;;;;;;;5.37;2.10;;;;;;;14.77;77.27;100375.11;2740302;85;21014;-69
2022/07/15 04:20:13;;;;;;;4.33;1.72;;;;;;;14.92;76.98;100372.23;2717043;86;20971;-66
2022/07/15 04:24:14;;;;;;;3.52;1.67;;;;;;;15.26;76.35;100384.12;2752051;86;21062;-67
2022/07/15 04:28:15;;;;;;;8.33;1.70;;;;;;;16.21;75.03;100378.57;2674917;85;21023;-71
2022/07/15 04:32:23;;;;;;;1.40;1.22;;;;;;;17.40;70.62;100381.22;2783131;85;20940;-71
2022/07/15 04:36:24;;;;;;;3.33;1.22;;;;;;;18.50;67.26;100381.14;2774978;85;21035;-66
2022/07/15 04:40:27;;;;;;;3.72;1.10;;;;;;;19.54;63.74;100390.75;2719616;85;21084;-68
2022/07/15 04:44:28;;;;;;;6.75;1.50;;;;;;;20.40;60.21;100391.39;2684948;89;21433;-69
2022/07/15 04:53:47;;;;;;;2.17;0.85;;;;;;;21.61;57.76;100395.86;2747956;86;20999;-67
2022/07/15 04:57:48;;;;;;;2.60;0.65;;;;;;;21.68;54.86;100399.50;2751286;85;20995;-68
2022/07/15 05:02:09;;;;;;;4.05;1.52;;;;;;;21.41;54.67;100404.64;2758237;82;21048;-67
2022/07/15 05:06:11;;;;;;;3.50;1.37;;;;;;;21.15;55.56;100407.44;2847744;81;20997;-93
2022/07/15 05:10:13;;;;;;;1.57;0.90;;;;;;;20.87;56.04;100416.30;2834095;82;20966;-94
2022/07/15 05:14:15;;;;;;;9.68;1.40;;;;;;;20.71;56.41;100420.55;2857981;82;21030;-92
2022/07/15 05:18:16;;;;;;;2.22;1.02;;;;;;;20.46;56.30;100427.63;2844060;82;20964;-91
2022/07/15 05:22:18;;;;;;;7.20;1.10;;;;;;;20.35;56.75;100431.11;2847566;83;21005;-92
2022/07/15 05:26:20;;;;;;;4.85;1.75;;;;;;;20.04;56.79;100437.52;2867983;83;21008;-92
2022/07/15 05:30:21;;;;;;;11.85;1.45;;;;;;;19.94;57.14;100429.69;2810823;81;21001;-89
2022/07/15 05:34:23;;;;;;;8.83;2.52;;;;;;;19.90;57.28;100441.03;2893022;80;20990;-93
2022/07/15 05:38:25;;;;;;;6.28;1.75;;;;;;;19.96;57.83;100444.36;2879034;80;21493;-93
2022/07/15 05:42:27;;;;;;;1.98;1.25;;;;;;;20.34;57.67;100449.70;2868410;83;20965;-92
2022/07/15 05:46:30;;;;;;;6.47;1.27;;;;;;;19.87;58.25;100447.62;2849770;82;20994;-92
2022/07/15 05:50:31;;;;;;;1.42;0.90;;;;;;;19.81;59.85;100442.44;2856912;82;21005;-92
2022/07/15 05:54:33;;;;;;;1.22;1.05;;;;;;;19.73;60.35;100456.02;2828375;83;21004;-92
2022/07/15 05:58:35;;;;;;;1.92;0.80;;;;;;;19.92;59.59;100456.03;2830053;83;21516;-93
2022/07/15 06:02:36;;;;;;;2.60;1.30;;;;;;;20.01;58.61;100463.54;2861724;82;21049;-93
2022/07/15 06:06:37;;;;;;;1.82;1.32;;;;;;;19.91;59.29;100456.20;2863796;83;21511;-92
2022/07/15 06:10:40;;;;;;;6.25;1.17;;;;;;;20.14;59.27;100453.98;2843968;83;21028;-93
2022/07/15 06:14:42;;;;;;;14.68;1.75;;;;;;;20.44;58.98;100462.07;2831420;83;21465;-92
2022/07/15 06:18:43;;;;;;;1.27;0.65;;;;;;;20.66;58.44;100470.61;2834089;83;21033;-91
2022/07/15 06:22:45;;;;;;;4.05;1.40;;;;;;;20.68;58.97;100456.89;2860527;82;21003;-93
2022/07/15 06:26:47;;;;;;;1.47;0.80;;;;;;;20.51;58.51;100468.42;2862751;83;21582;-92
2022/07/15 06:30:48;;;;;;;3.67;0.78;;;;;;;20.37;59.70;100460.66;2850112;82;21038;-91
2022/07/15 06:34:50;;;;;;;2.92;1.32;;;;;;;20.40;59.55;100471.08;2863501;82;21523;-89
2022/07/15 06:38:51;;;;;;;2.50;0.82;;;;;;;20.51;58.94;100469.77;2869929;82;21044;-92
2022/07/15 06:42:53;;;;;;;3.55;1.42;;;;;;;20.58;58.31;100477.45;2832680;81;21552;-92
2022/07/15 06:46:55;;;;;;;3.27;1.17;;;;;;;20.55;59.34;100481.88;2861816;80;21533;-92
2022/07/15 06:50:57;;;;;;;3.12;1.55;;;;;;;20.57;59.04;100482.53;2815542;82;21014;-93
2022/07/15 06:54:58;;;;;;;3.45;1.47;;;;;;;20.24;58.84;100477.48;2860527;82;20985;-93
2022/07/15 06:59:00;;;;;;;3.58;0.85;;;;;;;20.31;59.32;100484.34;2853156;82;21016;-93
2022/07/15 07:03:01;;;;;;;4.37;0.93;;;;;;;20.38;58.83;100490.70;2859566;81;21064;-91
2022/07/15 07:07:03;;;;;;;1.77;0.90;;;;;;;20.86;59.54;100480.87;2843898;82;21053;-92
2022/07/15 07:11:05;;;;;;;6.22;1.37;;;;;;;21.02;57.37;100484.35;2856719;81;21054;-92
2022/07/15 07:15:07;;;;;;;3.42;1.47;;;;;;;21.09;57.15;100484.76;2839845;80;20943;-92
2022/07/15 07:19:09;;;;;;;3.37;1.17;;;;;;;21.23;56.69;100477.66;2819131;83;31606;-93
2022/07/15 07:23:11;;;;;;;3.27;1.07;;;;;;;20.88;57.63;100489.62;2854286;81;21631;-92
2022/07/15 07:27:12;;;;;;;3.15;0.98;;;;;;;20.40;56.56;100482.70;2856456;83;21071;-90
2022/07/15 07:31:14;;;;;;;6.67;1.17;;;;;;;19.83;57.89;100492.20;2839157;81;21026;-92
2022/07/15 07:35:16;;;;;;;3.92;1.25;;;;;;;19.47;59.02;100488.77;2825741;82;21009;-93
2022/07/15 07:39:17;;;;;;;5.67;1.02;;;;;;;19.38;59.09;100498.77;2860109;83;21056;-93
2022/07/15 07:43:19;;;;;;;5.20;1.62;;;;;;;19.31;59.65;100500.52;2814971;82;21630;-93
2022/07/15 07:47:21;;;;;;;8.25;1.87;;;;;;;19.53;58.77;100492.94;2853714;82;21544;-93
2022/07/15 07:51:23;;;;;;;8.18;1.30;;;;;;;20.18;56.47;100480.93;2832291;81;21004;-93
2022/07/15 07:55:25;;;;;;;3.02;0.82;;;;;;;20.79;53.46;100478.55;2844204;82;21060;-93
2022/07/15 07:59:26;;;;;;;4.30;1.15;;;;;;;20.80;53.72;100488.36;2868808;82;21038;-92
2022/07/15 08:03:34;;;;;;;1.87;1.02;;;;;;;21.06;52.61;100487.84;2841548;81;21521;-93
2022/07/15 08:07:36;;;;;;;2.30;0.88;;;;;;;20.96;53.42;100485.45;2790685;82;21008;-92
2022/07/15 08:11:38;;;;;;;8.65;2.67;;;;;;;20.74;51.63;100474.22;2861453;80;20991;-91
2022/07/15 08:15:40;;;;;;;2.37;0.50;;;;;;;20.55;51.91;100488.13;2838888;82;20949;-92
2022/07/15 08:19:42;;;;;;;3.90;1.00;;;;;;;20.90;52.10;100498.88;2872426;80;21026;-92
2022/07/15 08:23:44;;;;;;;3.30;0.72;;;;;;;20.62;51.86;100500.36;2837088;81;20996;-93
2022/07/15 08:27:45;;;;;;;2.33;0.80;;;;;;;20.50;52.01;100496.47;2830497;82;21022;-93
2022/07/15 08:31:47;;;;;;;2.55;0.50;;;;;;;20.78;50.78;100495.79;2831118;81;21020;-92
2022/07/15 08:35:48;;;;;;;3.17;0.50;;;;;;;20.55;49.66;100494.03;2822417;82;21438;-92
2022/07/15 08:39:50;;;;;;;4.62;0.50;;;;;;;20.38;50.08;100509.08;2778604;81;21016;-90
2022/07/15 08:43:51;;;;;;;1.17;0.47;;;;;;;20.56;50.50;100511.92;2848729;80;21129;-91
2022/07/15 08:47:53;;;;;;;0.75;0.50;;;;;;;20.66;48.71;100518.40;2852188;81;21109;-92
2022/07/15 08:51:58;;;;;;;2.08;0.68;;;;;;;20.23;49.27;100506.86;2831111;83;21026;-92
2022/07/15 08:56:00;;;;;;;1.57;0.55;;;;;;;20.51;48.86;100517.88;2850580;81;21002;-92
2022/07/15 09:00:10;;;;;;;1.77;0.70;;;;;;;20.41;48.39;100508.70;2865697;81;21032;-92
2022/07/15 09:04:09;;;;;;;2.17;0.50;;;;;;;20.64;48.89;100517.75;2839192;81;21036;-93
2022/07/15 09:08:14;;;;;;;1.95;0.25;;;;;;;20.82;47.85;100518.73;2868978;81;21002;-87
2022/07/15 09:12:15;;;;;;;2.25;0.70;;;;;;;20.46;48.46;100520.84;2865052;81;21578;-92
2022/07/15 09:16:23;;;;;;;13.53;3.45;;;;;;;20.44;48.61;100528.27;2827793;82;20995;-92
2022/07/15 09:20:25;;;;;;;9.10;1.60;;;;;;;20.43;48.27;100519.34;2886316;80;20992;-92
2022/07/15 09:24:27;;;;;;;5.47;1.00;;;;;;;20.43;48.74;100517.98;2866768;80;21007;-92
2022/07/15 09:28:41;;;;;;;2.05;0.60;;;;;;;20.63;48.42;100529.06;2829754;81;20981;-94
2022/07/15 09:37:05;;;;;;;2.72;0.70;;;;;;;20.45;49.60;100544.83;2856002;81;20997;-91
2022/07/15 09:41:14;;;;;;;7.70;1.70;;;;;;;20.54;49.99;100530.19;2871345;80;21018;-92
2022/07/15 09:45:22;;;;;;;2.50;1.07;;;;;;;20.49;49.51;100523.16;2869711;81;20963;-91
2022/07/15 09:49:32;;;;;;;2.87;0.75;;;;;;;20.64;49.45;100525.36;2849772;81;21013;-91
2022/07/15 09:53:35;;;;;;;2.17;0.98;;;;;;;21.01;49.08;100526.80;2890969;80;20981;-91
2022/07/15 09:57:36;;;;;;;10.43;2.20;;;;;;;21.08;47.62;100533.64;2879732;81;20995;-92
2022/07/15 10:01:39;;;;;;;1.45;0.50;;;;;;;20.77;47.13;100540.92;2885373;81;21049;-93
2022/07/15 10:05:41;;;;;;;1.65;0.72;;;;;;;20.53;47.70;100533.92;2834278;81;20983;-93
2022/07/15 10:09:44;;;;;;;3.72;0.60;;;;;;;20.53;48.24;100539.33;2856828;81;21025;-90
2022/07/15 10:13:51;;;;;;;0.47;0.40;;;;;;;20.64;48.88;100538.02;2880245;80;21017;-89
2022/07/15 10:18:18;;;;;;;5.85;0.45;;;;;;;20.86;49.36;100540.34;2881519;81;21523;-92
2022/07/15 10:22:48;;;;;;;17.37;2.37;;;;;;;21.03;48.96;100540.97;2889808;81;21517;-92
2022/07/15 10:27:27;;;;;;;1.72;0.70;;;;;;;21.14;48.49;100544.23;2886025;81;21009;-90
2022/07/15 10:31:32;;;;;;;4.03;0.88;;;;;;;21.13;47.54;100542.02;2872991;81;21529;-92
2022/07/15 10:35:41;;;;;;;;;;;;;;;21.09;47.60;100521.80;2867178;81;21007;-92
2022/07/15 10:40:00;;;;;;;137.00;21.70;;;;;;;21.20;46.69;100537.52;2876716;81;20099;-92
2022/07/15 10:44:09;;;;;;;3.47;0.70;;;;;;;21.34;47.32;100532.27;2855858;80;21073;-92
2022/07/15 10:48:30;;;;;;;50.48;6.67;;;;;;;21.34;47.48;100525.00;2881939;81;20952;-93
2022/07/15 10:52:32;;;;;;;49.08;7.87;;;;;;;21.35;47.57;100538.00;2834103;81;21044;-92
2022/07/15 10:56:37;;;;;;;14.83;1.15;;;;;;;21.44;47.06;100540.92;2867044;81;21505;-92
2022/07/15 11:00:40;;;;;;;125.93;21.37;;;;;;;21.57;46.96;100531.25;2880893;81;21009;-91
2022/07/15 11:04:43;;;;;;;6.40;0.98;;;;;;;21.66;47.41;100508.48;2864359;81;21011;-93
2022/07/15 11:08:48;;;;;;;8.38;0.53;;;;;;;21.63;46.03;100525.09;2837818;81;21009;-95
2022/07/15 11:12:55;;;;;;;170.05;26.70;;;;;;;21.42;46.03;100538.94;2867112;80;21048;-86
2022/07/15 11:16:57;;;;;;;11.60;1.12;;;;;;;21.50;46.38;100541.50;2874152;81;20990;-92
2022/07/15 11:20:59;;;;;;;6.08;1.42;;;;;;;21.45;46.84;100525.02;2850159;80;21000;-93
2022/07/15 11:25:01;;;;;;;13.00;2.25;;;;;;;21.69;46.40;100528.41;2858945;80;20942;-91
2022/07/15 11:29:02;;;;;;;72.47;12.65;;;;;;;21.76;46.95;100519.81;2851092;82;21010;-89
2022/07/15 11:33:07;;;;;;;7.83;1.25;;;;;;;21.88;45.56;100532.84;2872471;81;21653;-92
2022/07/15 11:37:10;;;;;;;3.10;0.60;;;;;;;21.92;45.20;100517.88;2845649;82;21037;-92
2022/07/15 11:45:39;;;;;;;11.43;1.90;;;;;;;21.69;45.99;100533.81;2843758;82;21073;-91
2022/07/15 11:49:41;;;;;;;4.95;1.27;;;;;;;21.34;45.81;100524.16;2842822;82;21049;-92
2022/07/15 11:53:46;;;;;;;3.15;0.70;;;;;;;21.59;46.25;100530.05;2846811;81;21005;-90
2022/07/15 11:57:47;;;;;;;9.70;1.60;;;;;;;21.81;44.95;100521.95;2858998;81;20982;-91
2022/07/15 12:02:03;;;;;;;2.87;0.68;;;;;;;22.18;44.35;100515.05;2857728;81;20956;-92
2022/07/15 12:06:15;;;;;;;2.72;0.78;;;;;;;22.32;43.68;100503.81;2842380;82;20984;-91
2022/07/15 12:10:16;;;;;;;5.70;1.05;;;;;;;22.62;44.00;100506.30;2849745;81;21005;-91
2022/07/15 12:14:22;;;;;;;1.67;0.65;;;;;;;22.74;43.64;100512.83;2858138;81;21057;-92
2022/07/15 12:18:24;;;;;;;4.35;0.40;;;;;;;22.42;43.79;100518.36;2853307;81;21549;-94
2022/07/15 12:22:25;;;;;;;9.73;1.87;;;;;;;22.19;44.28;100515.36;2854806;81;20999;-95
2022/07/15 12:26:27;;;;;;;0.95;0.37;;;;;;;22.38;43.95;100505.18;2848043;81;20996;-94
2022/07/15 12:30:38;;;;;;;2.40;0.70;;;;;;;22.78;43.80;100516.81;2863301;81;21051;-94
2022/07/15 12:34:53;;;;;;;2.95;0.90;;;;;;;23.21;44.19;100510.31;2845461;81;21021;-90
2022/07/15 12:39:16;;;;;;;4.22;1.02;;;;;;;23.37;42.79;100515.05;2854893;81;20985;-90
2022/07/15 12:43:17;;;;;;;5.72;1.05;;;;;;;23.54;42.41;100515.52;2843923;81;20985;-92
2022/07/15 12:47:19;;;;;;;5.90;1.70;;;;;;;23.37;42.79;100509.62;2858471;81;21006;-95
2022/07/15 12:51:25;;;;;;;5.23;0.87;;;;;;;23.58;43.28;100520.85;2844781;81;21130;-90
2022/07/15 12:55:32;;;;;;;4.15;1.20;;;;;;;23.30;43.62;100512.86;2862546;81;21005;-93
2022/07/15 12:59:53;;;;;;;5.25;1.10;;;;;;;23.25;41.58;100514.31;2882350;80;21016;-90
2022/07/15 13:03:55;;;;;;;2.35;1.32;;;;;;;23.06;41.92;100506.91;2857381;81;21087;-92
2022/07/15 13:07:57;;;;;;;7.10;1.47;;;;;;;23.04;41.64;100504.92;2858265;80;21030;-91
2022/07/15 13:12:02;;;;;;;2.37;0.95;;;;;;;22.92;42.91;100497.36;2868439;81;21664;-93
2022/07/15 13:16:05;;;;;;;6.62;1.45;;;;;;;23.00;43.46;100507.20;2847209;82;20994;-90
2022/07/15 13:20:08;;;;;;;7.08;1.20;;;;;;;22.99;43.91;100511.45;2851155;82;21593;-93
2022/07/15 13:24:10;;;;;;;4.22;0.95;;;;;;;22.77;43.76;100515.64;2851939;80;21003;-88
2022/07/15 13:28:13;;;;;;;2.35;0.70;;;;;;;22.97;43.61;100508.43;2840968;82;21006;-91
2022/07/15 13:32:15;;;;;;;4.58;1.05;;;;;;;23.28;43.25;100507.62;2842228;82;21050;-90
2022/07/15 13:53:02;;;;;;;8.25;2.25;;;;;;;23.10;43.46;100483.76;2738574;83;21202;-90
2022/07/15 13:57:05;;;;;;;7.50;0.98;;;;;;;23.16;43.17;100512.77;2881945;82;20955;-91
2022/07/15 14:01:24;;;;;;;27.60;6.12;;;;;;;23.07;43.65;100505.88;2891582;81;20997;-89
2022/07/15 14:05:30;;;;;;;3.55;1.30;;;;;;;23.46;43.66;100508.91;2890347;82;21030;-91
2022/07/15 14:09:34;;;;;;;5.97;1.32;;;;;;;23.42;43.37;100503.08;2883281;81;20971;-88
2022/07/15 14:17:47;;;;;;;4.22;1.10;;;;;;;22.97;43.23;100503.00;2840349;80;71080;-87
2022/07/15 14:39:52;;;;;;;3.58;0.90;;;;;;;22.35;44.39;100506.94;2925877;80;21381;-89
2022/07/15 14:43:53;;;;;;;3.90;2.08;;;;;;;22.36;44.92;100509.97;2914094;80;21365;-93
2022/07/15 14:47:56;;;;;;;3.65;1.15;;;;;;;22.23;44.47;100513.42;2930408;79;21043;-91
2022/07/15 14:51:58;;;;;;;3.10;0.70;;;;;;;22.27;45.27;100507.10;2926144;80;20975;-92
2022/07/15 14:55:59;;;;;;;3.40;1.07;;;;;;;22.30;44.69;100518.89;2823091;80;21014;-88
2022/07/15 15:00:02;;;;;;;8.28;1.32;;;;;;;22.80;43.87;100509.84;2907662;80;20967;-88
2022/07/15 15:04:09;;;;;;;3.42;1.30;;;;;;;23.41;43.54;100507.34;2807288;83;21006;-96
2022/07/15 15:08:12;;;;;;;2.12;0.60;;;;;;;23.52;42.23;100514.89;2878089;81;21001;-93
2022/07/15 15:12:14;;;;;;;15.80;3.22;;;;;;;23.07;42.63;100512.66;2884340;81;20992;-92
2022/07/15 15:16:15;;;;;;;1.15;0.80;;;;;;;22.78;43.04;100517.31;2871572;81;20999;-91
2022/07/15 15:20:17;;;;;;;3.15;1.10;;;;;;;22.48;43.86;100518.94;2862952;81;21034;-93
2022/07/15 15:24:19;;;;;;;5.72;1.17;;;;;;;22.34;44.47;100515.28;2879413;81;21375;-94
2022/07/15 15:28:21;;;;;;;4.05;1.40;;;;;;;22.25;44.94;100515.95;2871496;82;20961;-93
2022/07/15 15:32:22;;;;;;;2.08;0.85;;;;;;;22.53;45.50;100505.63;2874363;81;20953;-91
2022/07/15 15:36:25;;;;;;;2.00;0.80;;;;;;;22.91;43.99;100507.89;2880258;81;21183;-93
2022/07/15 15:40:35;;;;;;;7.62;1.85;;;;;;;22.73;43.59;100511.16;2844241;81;21053;-89
2022/07/15 15:53:39;;;;;;;4.12;0.78;;;;;;;22.27;44.74;100508.45;2878400;81;21055;-65
2022/07/15 15:57:41;;;;;;;7.03;1.07;;;;;;;22.07;44.88;100517.78;2879453;81;20976;-65
2022/07/15 16:01:48;;;;;;;5.58;1.00;;;;;;;22.07;44.12;100505.09;2860744;82;21031;-69
2022/07/15 16:05:50;;;;;;;2.77;0.85;;;;;;;22.00;44.91;100506.06;2883268;81;20959;-66
2022/07/15 16:09:56;;;;;;;3.00;0.40;;;;;;;21.95;45.04;100515.63;2883071;81;20944;-68
2022/07/15 16:13:58;;;;;;;3.80;1.98;;;;;;;21.94;45.01;100509.89;2879163;81;21007;-66
2022/07/15 16:18:33;;;;;;;6.85;1.32;;;;;;;22.04;45.22;100499.22;2879060;82;21014;-66
2022/07/15 16:27:13;;;;;;;18.92;4.72;;;;;;;22.05;45.26;100513.93;2885029;81;21002;-67
2022/07/15 16:31:25;;;;;;;9.18;1.50;;;;;;;21.91;45.34;100511.64;2891403;81;20984;-65
2022/07/15 16:35:28;;;;;;;8.55;2.15;;;;;;;21.94;45.37;100509.03;2903051;80;21020;-66
2022/07/15 16:39:41;;;;;;;34.30;3.45;;;;;;;21.85;45.71;100515.64;2913048;81;21170;-65
2022/07/15 16:43:42;;;;;;;9.78;1.62;;;;;;;21.77;46.08;100517.42;2879177;82;21027;-66
2022/07/15 16:48:01;;;;;;;6.80;1.25;;;;;;;21.85;46.13;100512.93;2881441;81;20988;-65
2022/07/15 16:52:03;;;;;;;147.32;38.15;;;;;;;21.91;46.02;100511.64;2859151;82;21032;-66
2022/07/15 16:56:06;;;;;;;6.03;2.10;;;;;;;21.73;47.36;100503.97;2844285;84;21005;-67
2022/07/15 17:00:21;;;;;;;3.75;1.07;;;;;;;21.68;46.59;100511.30;2839405;84;21001;-66
2022/07/15 17:04:22;;;;;;;1.90;0.72;;;;;;;21.60;46.74;100515.98;2844812;83;20956;-66
2022/07/15 17:08:52;;;;;;;4.22;0.93;;;;;;;21.50;46.61;100499.56;2832038;84;20947;-69
2022/07/15 17:12:54;;;;;;;3.42;0.75;;;;;;;21.58;46.86;100500.45;2844857;84;20936;-73
2022/07/15 17:17:26;;;;;;;7.92;1.60;;;;;;;21.58;46.93;100496.39;2774130;83;21038;-66
2022/07/15 17:21:28;;;;;;;5.50;1.27;;;;;;;21.67;46.33;100499.34;2782380;83;20980;-68
2022/07/15 17:25:30;;;;;;;5.85;1.32;;;;;;;21.65;45.75;100500.88;2834659;81;20969;-68
2022/07/15 17:34:15;;;;;;;9.68;1.22;;;;;;;21.58;45.78;100490.98;2852743;83;21003;-70
2022/07/15 17:38:55;;;;;;;2.98;0.60;;;;;;;21.47;45.87;100489.13;2842892;83;20986;-66
2022/07/15 17:42:57;;;;;;;3.98;0.98;;;;;;;21.29;45.97;100496.84;2821205;81;20942;-67
2022/07/15 17:47:08;;;;;;;54.88;12.20;;;;;;;21.16;46.30;100497.01;2790925;82;21022;-69
2022/07/15 17:51:32;;;;;;;40.48;7.53;;;;;;;21.04;46.80;100498.02;2843130;82;21004;-68
2022/07/15 17:55:36;;;;;;;14.00;3.35;;;;;;;20.99;46.86;100497.76;2861513;83;21013;-67
2022/07/15 17:59:57;;;;;;;8.68;1.40;;;;;;;20.77;47.08;100493.61;2879406;81;20956;-68
2022/07/15 18:03:59;;;;;;;27.58;2.85;;;;;;;20.71;47.09;100496.23;2878056;81;20991;-70
2022/07/15 18:08:37;;;;;;;10.78;2.60;;;;;;;20.59;47.42;100503.44;2882242;81;20992;-71
2022/07/15 18:12:39;;;;;;;20.77;4.05;;;;;;;20.50;47.84;100502.70;2874083;82;21011;-71
2022/07/15 18:16:56;;;;;;;7.35;1.50;;;;;;;20.39;47.90;100512.10;2878642;82;20983;-70
2022/07/15 18:20:58;;;;;;;17.20;3.85;;;;;;;20.32;48.24;100507.13;2858759;83;20980;-67
2022/07/15 18:25:00;;;;;;;40.90;3.65;;;;;;;20.17;48.10;100513.01;2879535;82;20959;-74
2022/07/15 18:29:23;;;;;;;28.50;5.05;;;;;;;20.14;48.30;100502.05;2888703;81;20983;-72
2022/07/15 18:33:25;;;;;;;17.65;3.50;;;;;;;20.01;48.84;100506.73;2904270;81;21046;-68
2022/07/15 18:37:44;;;;;;;64.53;11.73;;;;;;;19.88;48.74;100510.55;2874873;83;20953;-73
2022/07/15 18:41:46;;;;;;;49.67;7.75;;;;;;;19.73;49.18;100515.88;2875717;82;20988;-71
2022/07/15 18:45:58;;;;;;;11.43;2.90;;;;;;;19.60;49.32;100515.99;2882626;81;21000;-71
2022/07/15 18:50:00;;;;;;;31.93;5.47;;;;;;;19.52;49.46;100521.42;2833113;83;21016;-65
2022/07/15 18:54:01;;;;;;;24.77;3.60;;;;;;;19.44;49.43;100519.63;2850130;82;21040;-69
2022/07/15 18:58:02;;;;;;;44.50;6.10;;;;;;;19.35;49.81;100516.66;2924817;80;20943;-65
2022/07/15 19:02:04;;;;;;;21.57;4.15;;;;;;;19.24;50.14;100520.60;2869290;81;21089;-64
2022/07/15 19:06:06;;;;;;;17.55;3.77;;;;;;;19.13;50.16;100519.14;2878638;81;21059;-66
2022/07/15 19:10:08;;;;;;;24.32;3.60;;;;;;;19.00;50.46;100518.86;2895695;80;20955;-66
2022/07/15 19:14:09;;;;;;;27.02;3.77;;;;;;;18.79;50.96;100527.00;2916052;80;20971;-68
2022/07/15 19:18:11;;;;;;;42.58;4.85;;;;;;;18.59;51.04;100530.09;2914922;81;21014;-68
2022/07/15 19:22:13;;;;;;;17.60;3.62;;;;;;;18.47;51.34;100528.28;2898325;80;21022;-69
2022/07/15 19:26:14;;;;;;;28.27;7.15;;;;;;;18.38;51.76;100532.84;2904330;80;20947;-64
2022/07/15 19:30:16;;;;;;;43.60;9.75;;;;;;;18.24;52.27;100537.56;2942331;80;21018;-66
2022/07/15 19:35:14;;;;;;;46.53;9.45;;;;;;;18.05;52.83;100534.22;2851468;82;20980;-68
2022/07/15 19:39:15;;;;;;;34.55;5.12;;;;;;;17.88;53.07;100546.81;2881878;80;21002;-65
2022/07/15 19:43:35;;;;;;;4.58;1.67;;;;;;;17.73;53.18;100545.30;2933108;80;20967;-66
2022/07/15 19:47:37;;;;;;;25.50;5.20;;;;;;;17.63;53.32;100546.80;2921392;80;20985;-66
2022/07/15 19:51:39;;;;;;;203.55;39.30;;;;;;;17.48;53.51;100553.30;2866078;81;21039;-69
2022/07/15 19:55:46;;;;;;;65.52;11.43;;;;;;;17.35;53.89;100548.92;2884272;82;21040;-67
2022/07/15 20:04:28;;;;;;;7.83;2.00;;;;;;;17.11;54.47;100552.70;2919326;81;20945;-66
2022/07/15 20:08:30;;;;;;;;;;;;;;;16.97;54.94;100555.97;2833458;83;21017;-68
2022/07/15 20:12:32;;;;;;;8.45;2.25;;;;;;;16.85;55.76;100554.06;2762386;83;20145;-70
2022/07/15 20:16:45;;;;;;;120.77;21.68;;;;;;;16.72;55.50;100556.37;2793000;84;20968;-67
2022/07/15 20:20:50;;;;;;;82.27;14.73;;;;;;;16.60;56.14;100565.17;2775719;85;21005;-66
2022/07/15 20:25:36;;;;;;;11.00;2.93;;;;;;;16.45;56.50;100558.20;2773971;84;21029;-67
2022/07/15 20:29:39;;;;;;;295.88;55.70;;;;;;;16.30;57.21;100556.08;2774771;85;20989;-66
2022/07/15 20:34:02;;;;;;;393.75;90.10;;;;;;;16.16;57.41;100554.81;2771135;85;21006;-65
2022/07/15 20:38:06;;;;;;;378.62;76.70;;;;;;;16.06;57.87;100554.91;2792213;85;21413;-66